»·PEaware :: HB-HRJ KRNM-KSNA

HB-HRJ :: KRNM-KSNA

FLIGHT INFORMATION

Flight Status: Arrived
Operator: Privately registered:
Switzerland
More flights under this callsign
Pilot: Jean Francois S. (616)
Aircraft: PILATUS PC-9 HUDURNIK
(PC9)
More flights by this aircraft type
Origin: KRNM Ramona
United States
Destination: KSNA John Wayne-Orange Co
United States
More flights between these airports :: More routes between these airports
Route: +
File this flight plan on PilotEdge
Remarks:
Altitude:
(Current/Filed)
3,000ft
Speed:
(Current/Filed)
0kts
Departed: 29-Jul-14 10:51 AM
Arrived: 29-Jul-14 11:09 AM
Distance/Time
Traveled:
61nm/0:17
Distance/Time
To Go:
Arrived

Flight Plot

Page will automatically refresh every two minutes.


Map Options




Map Legend


Flown Route
Filed Route
Departure Airport
Arrival Airport
Navaid (VOR, NDB)
Fix

Horizontal Profiles

Position Reports

Time Latitude Longitude Heading Altitude Ground
Speed
29-Jul-14 10:16 33.672440 -117.866944 205 60ft 0kts
29-Jul-14 10:17 33.672440 -117.866944 205 60ft 0kts
29-Jul-14 10:18 33.672440 -117.866944 205 60ft 0kts
29-Jul-14 10:19 33.672440 -117.866944 205 60ft 0kts
29-Jul-14 10:20 33.672440 -117.866944 205 60ft 0kts
29-Jul-14 10:21 33.672440 -117.866944 205 60ft 0kts
29-Jul-14 10:22 33.672440 -117.866944 205 60ft 0kts
29-Jul-14 10:23 33.672440 -117.866944 205 60ft 0kts
29-Jul-14 10:24 33.672440 -117.866944 205 60ft 0kts
29-Jul-14 10:25 33.672440 -117.866944 205 60ft 0kts
29-Jul-14 10:26 33.672440 -117.866944 205 60ft 0kts
29-Jul-14 10:27 33.672440 -117.866944 205 60ft 0kts
29-Jul-14 10:28 33.672440 -117.866944 205 60ft 0kts
29-Jul-14 10:29 33.672440 -117.866944 205 60ft 0kts
29-Jul-14 10:30 33.039346 -116.907992 274 1400ft 0kts
29-Jul-14 10:31 33.039346 -116.907992 274 1400ft 0kts
29-Jul-14 10:32 33.039346 -116.907992 274 1400ft 0kts
29-Jul-14 10:33 33.039346 -116.907992 274 1400ft 0kts
29-Jul-14 10:34 33.039346 -116.907992 274 1400ft 0kts
29-Jul-14 10:35 33.039346 -116.907992 274 1400ft 0kts
29-Jul-14 10:36 33.039346 -116.907992 274 1400ft 0kts
29-Jul-14 10:37 33.039346 -116.907992 274 1400ft 0kts
29-Jul-14 10:38 33.039346 -116.907992 274 1400ft 0kts
29-Jul-14 10:39 33.039346 -116.907992 274 1400ft 0kts
29-Jul-14 10:40 33.039346 -116.907992 274 1400ft 0kts
29-Jul-14 10:41 33.039346 -116.907992 274 1400ft 0kts
29-Jul-14 10:42 33.039346 -116.907992 274 1400ft 0kts
29-Jul-14 10:43 33.039346 -116.907992 274 1400ft 0kts
29-Jul-14 10:44 33.039346 -116.907992 274 1400ft 0kts
29-Jul-14 10:45 33.039346 -116.907992 274 1400ft 0kts
29-Jul-14 10:46 33.039298 -116.908065 213 1400ft 5kts
29-Jul-14 10:47 33.038418 -116.907434 189 1399ft 0kts
29-Jul-14 10:48 33.038418 -116.907434 189 1399ft 0kts
29-Jul-14 10:49 33.038320 -116.909541 279 1400ft 39kts
29-Jul-14 10:50 33.059264 -116.925835 9 3499ft 130kts
29-Jul-14 10:51 33.092211 -116.931929 290 5571ft 173kts
29-Jul-14 10:52 33.107284 -116.983710 288 8070ft 161kts
29-Jul-14 10:53 33.126719 -117.047890 286 8494ft 257kts
29-Jul-14 10:54 33.144984 -117.134746 282 8472ft 280kts
29-Jul-14 10:55 33.164342 -117.219781 263 8484ft 280kts
29-Jul-14 10:56 33.176836 -117.305108 323 8414ft 290kts
29-Jul-14 10:57 33.245963 -117.352970 323 8465ft 291kts
29-Jul-14 10:58 33.310740 -117.410823 318 8448ft 294kts
29-Jul-14 10:59 33.378303 -117.475194 318 6658ft 309kts
29-Jul-14 11:00 33.437542 -117.535874 313 6488ft 280kts
29-Jul-14 11:01 33.496893 -117.595536 323 6488ft 277kts
29-Jul-14 11:02 33.549677 -117.638148 323 6498ft 274kts
29-Jul-14 11:03 33.605330 -117.684024 323 6485ft 274kts
29-Jul-14 11:04 33.655978 -117.733695 296 3839ft 263kts
29-Jul-14 11:05 33.682173 -117.795134 296 2144ft 252kts
29-Jul-14 11:06 33.701065 -117.839664 288 1540ft 156kts
29-Jul-14 11:07 33.690371 -117.859458 208 429ft 108kts
29-Jul-14 11:08 33.673364 -117.870356 214 61ft 26kts
29-Jul-14 11:09 33.672392 -117.873181 264 60ft 20kts

Navigation Log

Ident Type
Flight plan parsing failed, navigation log unavailable